sensor_id;sensor_type;location;lat;lon;timestamp;pressure;altitude;pressure_sealevel;temperature;humidity
11099;BME280;12223;42.650;23.364;2024-01-06T00:00:03;94558.84;;;10.59;64.38
11099;BME280;12223;42.650;23.364;2024-01-06T00:02:30;94575.59;;;9.62;70.76
11099;BME280;12223;42.650;23.364;2024-01-06T00:04:57;94567.91;;;10.15;68.82
11099;BME280;12223;42.650;23.364;2024-01-06T00:07:24;94569.16;;;9.76;68.96
11099;BME280;12223;42.650;23.364;2024-01-06T00:09:51;94573.50;;;9.89;70.48
11099;BME280;12223;42.650;23.364;2024-01-06T00:12:18;94534.03;;;10.12;67.64
11099;BME280;12223;42.650;23.364;2024-01-06T00:14:46;94544.63;;;10.30;67.76
11099;BME280;12223;42.650;23.364;2024-01-06T00:17:16;94538.91;;;8.93;77.09
11099;BME280;12223;42.650;23.364;2024-01-06T00:19:43;94567.66;;;8.25;95.92
11099;BME280;12223;42.650;23.364;2024-01-06T00:22:10;94573.41;;;8.84;95.43
11099;BME280;12223;42.650;23.364;2024-01-06T00:24:37;94572.13;;;9.18;94.91
11099;BME280;12223;42.650;23.364;2024-01-06T00:27:04;94573.28;;;9.72;88.88
11099;BME280;12223;42.650;23.364;2024-01-06T00:29:31;94566.84;;;10.04;83.88
11099;BME280;12223;42.650;23.364;2024-01-06T00:31:59;94539.47;;;10.35;78.40
11099;BME280;12223;42.650;23.364;2024-01-06T00:34:26;94559.28;;;10.26;79.17
11099;BME280;12223;42.650;23.364;2024-01-06T00:36:52;94572.97;;;10.35;78.25
11099;BME280;12223;42.650;23.364;2024-01-06T00:39:19;94542.75;;;10.31;75.86
11099;BME280;12223;42.650;23.364;2024-01-06T00:41:46;94559.88;;;10.58;74.38
11099;BME280;12223;42.650;23.364;2024-01-06T00:44:13;94576.56;;;10.40;73.68
11099;BME280;12223;42.650;23.364;2024-01-06T00:46:40;94571.72;;;10.37;75.87
11099;BME280;12223;42.650;23.364;2024-01-06T00:49:08;94561.44;;;10.47;76.24
11099;BME280;12223;42.650;23.364;2024-01-06T00:51:34;94556.84;;;10.25;74.36
11099;BME280;12223;42.650;23.364;2024-01-06T00:54:01;94561.31;;;9.88;74.40
11099;BME280;12223;42.650;23.364;2024-01-06T00:56:28;94548.94;;;9.70;76.11
11099;BME280;12223;42.650;23.364;2024-01-06T00:58:55;94567.94;;;9.79;76.24
11099;BME280;12223;42.650;23.364;2024-01-06T01:01:21;94558.81;;;9.93;75.62
11099;BME280;12223;42.650;23.364;2024-01-06T01:03:48;94556.84;;;9.88;76.06
11099;BME280;12223;42.650;23.364;2024-01-06T01:06:16;94532.97;;;9.83;77.28
11099;BME280;12223;42.650;23.364;2024-01-06T01:08:43;94569.28;;;10.24;78.28
11099;BME280;12223;42.650;23.364;2024-01-06T01:11:11;94557.34;;;10.33;78.35
11099;BME280;12223;42.650;23.364;2024-01-06T01:13:38;94560.59;;;9.81;77.17
11099;BME280;12223;42.650;23.364;2024-01-06T01:16:05;94559.13;;;10.03;77.01
11099;BME280;12223;42.650;23.364;2024-01-06T01:18:32;94550.31;;;10.09;75.50
11099;BME280;12223;42.650;23.364;2024-01-06T01:20:58;94541.41;;;9.74;75.51
11099;BME280;12223;42.650;23.364;2024-01-06T01:23:26;94545.69;;;9.50;74.08
11099;BME280;12223;42.650;23.364;2024-01-06T01:25:54;94544.72;;;9.44;74.24
11099;BME280;12223;42.650;23.364;2024-01-06T01:28:21;94543.38;;;9.60;73.62
11099;BME280;12223;42.650;23.364;2024-01-06T01:30:48;94537.19;;;9.05;75.49
11099;BME280;12223;42.650;23.364;2024-01-06T01:33:14;94541.94;;;8.96;80.98
11099;BME280;12223;42.650;23.364;2024-01-06T01:35:41;94547.22;;;9.39;77.68
11099;BME280;12223;42.650;23.364;2024-01-06T01:38:08;94532.50;;;9.50;75.61
11099;BME280;12223;42.650;23.364;2024-01-06T01:40:36;94530.56;;;9.63;75.06
11099;BME280;12223;42.650;23.364;2024-01-06T01:43:03;94527.84;;;9.70;74.17
11099;BME280;12223;42.650;23.364;2024-01-06T01:45:29;94502.13;;;9.47;72.23
11099;BME280;12223;42.650;23.364;2024-01-06T01:47:56;94512.81;;;9.52;71.48
11099;BME280;12223;42.650;23.364;2024-01-06T01:50:23;94513.91;;;9.63;70.81
11099;BME280;12223;42.650;23.364;2024-01-06T01:52:53;94516.13;;;9.66;71.90
11099;BME280;12223;42.650;23.364;2024-01-06T01:55:20;94514.44;;;9.72;71.35
11099;BME280;12223;42.650;23.364;2024-01-06T01:57:48;94511.59;;;9.73;71.57
11099;BME280;12223;42.650;23.364;2024-01-06T02:00:15;94507.03;;;9.80;71.68
11099;BME280;12223;42.650;23.364;2024-01-06T02:02:42;94523.16;;;9.90;70.03
11099;BME280;12223;42.650;23.364;2024-01-06T02:05:09;94512.38;;;9.92;69.36
11099;BME280;12223;42.650;23.364;2024-01-06T02:07:36;94494.28;;;9.95;70.11
11099;BME280;12223;42.650;23.364;2024-01-06T02:10:06;94513.75;;;9.94;69.85
11099;BME280;12223;42.650;23.364;2024-01-06T02:12:32;94511.81;;;9.72;68.88
11099;BME280;12223;42.650;23.364;2024-01-06T02:15:01;94496.88;;;9.47;72.84
11099;BME280;12223;42.650;23.364;2024-01-06T02:17:27;94488.56;;;9.25;70.44
11099;BME280;12223;42.650;23.364;2024-01-06T02:19:54;94473.22;;;9.59;69.33
11099;BME280;12223;42.650;23.364;2024-01-06T02:22:23;94479.06;;;9.79;73.38
11099;BME280;12223;42.650;23.364;2024-01-06T02:24:50;94473.28;;;9.52;76.17
11099;BME280;12223;42.650;23.364;2024-01-06T02:27:16;94465.09;;;9.60;76.77
11099;BME280;12223;42.650;23.364;2024-01-06T02:29:43;94466.19;;;9.71;76.97
11099;BME280;12223;42.650;23.364;2024-01-06T02:32:10;94478.41;;;9.65;76.00
11099;BME280;12223;42.650;23.364;2024-01-06T02:34:36;94471.22;;;9.91;73.95
11099;BME280;12223;42.650;23.364;2024-01-06T02:37:03;94461.03;;;9.76;72.58
11099;BME280;12223;42.650;23.364;2024-01-06T02:39:32;94466.91;;;10.08;71.91
11099;BME280;12223;42.650;23.364;2024-01-06T02:41:58;94466.19;;;10.01;70.54
11099;BME280;12223;42.650;23.364;2024-01-06T02:44:25;94451.97;;;10.02;70.19
11099;BME280;12223;42.650;23.364;2024-01-06T02:46:52;94441.38;;;9.90;69.64
11099;BME280;12223;42.650;23.364;2024-01-06T02:49:19;94463.59;;;9.83;69.62
11099;BME280;12223;42.650;23.364;2024-01-06T02:51:46;94466.19;;;10.01;68.98
11099;BME280;12223;42.650;23.364;2024-01-06T02:54:13;94455.69;;;10.13;68.28
11099;BME280;12223;42.650;23.364;2024-01-06T02:56:41;94449.44;;;9.95;67.61
11099;BME280;12223;42.650;23.364;2024-01-06T02:59:08;94437.75;;;10.21;66.71
11099;BME280;12223;42.650;23.364;2024-01-06T03:01:34;94431.47;;;10.34;65.48
11099;BME280;12223;42.650;23.364;2024-01-06T03:04:01;94422.22;;;10.55;63.85
11099;BME280;12223;42.650;23.364;2024-01-06T03:06:28;94425.69;;;10.55;63.42
11099;BME280;12223;42.650;23.364;2024-01-06T03:08:55;94417.97;;;10.42;63.44
11099;BME280;12223;42.650;23.364;2024-01-06T03:11:22;94421.84;;;10.09;65.61
11099;BME280;12223;42.650;23.364;2024-01-06T03:13:50;94427.56;;;10.06;65.63
11099;BME280;12223;42.650;23.364;2024-01-06T03:16:17;94434.03;;;10.11;66.58
11099;BME280;12223;42.650;23.364;2024-01-06T03:18:43;94432.03;;;10.24;65.52
11099;BME280;12223;42.650;23.364;2024-01-06T03:21:18;94427.50;;;10.43;65.17
11099;BME280;12223;42.650;23.364;2024-01-06T03:23:45;94413.94;;;10.51;64.81
11099;BME280;12223;42.650;23.364;2024-01-06T03:26:12;94410.06;;;10.65;63.60
11099;BME280;12223;42.650;23.364;2024-01-06T03:28:38;94412.69;;;10.65;62.84
11099;BME280;12223;42.650;23.364;2024-01-06T03:31:06;94426.59;;;10.61;63.24
11099;BME280;12223;42.650;23.364;2024-01-06T03:33:33;94428.75;;;10.64;62.67
11099;BME280;12223;42.650;23.364;2024-01-06T03:36:04;94407.53;;;10.70;62.66
11099;BME280;12223;42.650;23.364;2024-01-06T03:38:31;94412.59;;;10.72;62.33
11099;BME280;12223;42.650;23.364;2024-01-06T03:40:57;94424.56;;;10.74;62.11
11099;BME280;12223;42.650;23.364;2024-01-06T03:43:24;94420.50;;;10.60;62.59
11099;BME280;12223;42.650;23.364;2024-01-06T03:45:51;94411.78;;;10.60;62.32
11099;BME280;12223;42.650;23.364;2024-01-06T03:48:19;94420.03;;;10.63;62.44
11099;BME280;12223;42.650;23.364;2024-01-06T03:50:46;94417.97;;;10.54;61.87
11099;BME280;12223;42.650;23.364;2024-01-06T03:53:13;94409.88;;;10.25;63.10
11099;BME280;12223;42.650;23.364;2024-01-06T03:55:39;94402.22;;;10.35;63.08
11099;BME280;12223;42.650;23.364;2024-01-06T03:58:06;94408.09;;;10.49;62.33
11099;BME280;12223;42.650;23.364;2024-01-06T04:00:33;94417.72;;;10.43;62.18
11099;BME280;12223;42.650;23.364;2024-01-06T04:03:00;94406.81;;;10.10;63.31
11099;BME280;12223;42.650;23.364;2024-01-06T04:05:28;94417.31;;;10.17;64.16
11099;BME280;12223;42.650;23.364;2024-01-06T04:07:54;94412.63;;;10.00;63.98
11099;BME280;12223;42.650;23.364;2024-01-06T04:10:21;94417.00;;;10.06;64.79
11099;BME280;12223;42.650;23.364;2024-01-06T04:12:48;94415.66;;;10.04;64.28
11099;BME280;12223;42.650;23.364;2024-01-06T04:15:15;94421.38;;;10.13;63.85
11099;BME280;12223;42.650;23.364;2024-01-06T04:17:41;94407.97;;;9.18;67.03
11099;BME280;12223;42.650;23.364;2024-01-06T04:20:09;94402.53;;;9.49;68.24
11099;BME280;12223;42.650;23.364;2024-01-06T04:22:39;94403.94;;;9.52;66.49
11099;BME280;12223;42.650;23.364;2024-01-06T04:25:06;94411.41;;;9.73;66.99
11099;BME280;12223;42.650;23.364;2024-01-06T04:27:33;94407.81;;;9.49;67.76
11099;BME280;12223;42.650;23.364;2024-01-06T04:30:00;94408.03;;;9.66;67.06
11099;BME280;12223;42.650;23.364;2024-01-06T04:32:27;94420.47;;;9.77;66.45
11099;BME280;12223;42.650;23.364;2024-01-06T04:34:54;94432.91;;;9.70;66.18
11099;BME280;12223;42.650;23.364;2024-01-06T04:37:22;94435.47;;;9.77;65.62
11099;BME280;12223;42.650;23.364;2024-01-06T04:39:50;94435.59;;;9.82;65.56
11099;BME280;12223;42.650;23.364;2024-01-06T04:42:17;94432.31;;;9.68;66.97
11099;BME280;12223;42.650;23.364;2024-01-06T04:44:45;94442.22;;;9.73;65.86
11099;BME280;12223;42.650;23.364;2024-01-06T04:47:11;94426.41;;;9.73;66.12
11099;BME280;12223;42.650;23.364;2024-01-06T04:49:38;94422.66;;;9.62;65.32
11099;BME280;12223;42.650;23.364;2024-01-06T04:52:05;94421.13;;;9.73;64.95
11099;BME280;12223;42.650;23.364;2024-01-06T04:54:32;94422.91;;;9.42;65.18
11099;BME280;12223;42.650;23.364;2024-01-06T04:57:00;94444.16;;;9.47;66.39
11099;BME280;12223;42.650;23.364;2024-01-06T04:59:27;94429.72;;;9.32;67.52
11099;BME280;12223;42.650;23.364;2024-01-06T05:01:53;94424.56;;;9.55;66.21
11099;BME280;12223;42.650;23.364;2024-01-06T05:04:20;94432.97;;;9.82;65.13
11099;BME280;12223;42.650;23.364;2024-01-06T05:06:47;94420.00;;;9.80;64.43
11099;BME280;12223;42.650;23.364;2024-01-06T05:09:15;94418.81;;;9.94;63.86
11099;BME280;12223;42.650;23.364;2024-01-06T05:11:43;94422.38;;;10.00;62.82
11099;BME280;12223;42.650;23.364;2024-01-06T05:14:11;94413.28;;;9.84;63.57
11099;BME280;12223;42.650;23.364;2024-01-06T05:16:38;94423.22;;;9.82;64.41
11099;BME280;12223;42.650;23.364;2024-01-06T05:19:05;94420.50;;;9.59;64.86
11099;BME280;12223;42.650;23.364;2024-01-06T05:21:32;94388.72;;;8.99;68.57
11099;BME280;12223;42.650;23.364;2024-01-06T05:23:59;94428.63;;;9.21;67.75
11099;BME280;12223;42.650;23.364;2024-01-06T05:26:25;94405.72;;;9.21;66.48
11099;BME280;12223;42.650;23.364;2024-01-06T05:28:52;94400.38;;;9.28;65.80
11099;BME280;12223;42.650;23.364;2024-01-06T05:31:20;94399.09;;;9.49;65.03
11099;BME280;12223;42.650;23.364;2024-01-06T05:33:47;94401.75;;;9.31;65.12
11099;BME280;12223;42.650;23.364;2024-01-06T05:36:18;94402.22;;;9.27;66.60
11099;BME280;12223;42.650;23.364;2024-01-06T05:38:45;94387.94;;;9.35;66.65
11099;BME280;12223;42.650;23.364;2024-01-06T05:41:11;94390.03;;;9.45;65.89
11099;BME280;12223;42.650;23.364;2024-01-06T05:43:38;94400.47;;;9.69;65.64
11099;BME280;12223;42.650;23.364;2024-01-06T05:46:05;94386.34;;;9.64;64.60
11099;BME280;12223;42.650;23.364;2024-01-06T05:48:33;94384.56;;;9.28;65.00
11099;BME280;12223;42.650;23.364;2024-01-06T05:51:00;94393.91;;;9.24;66.52
11099;BME280;12223;42.650;23.364;2024-01-06T05:53:27;94384.53;;;8.73;70.04
11099;BME280;12223;42.650;23.364;2024-01-06T05:55:54;94394.00;;;9.17;66.53
11099;BME280;12223;42.650;23.364;2024-01-06T05:58:20;94388.81;;;9.29;66.69
11099;BME280;12223;42.650;23.364;2024-01-06T06:00:47;94374.34;;;9.50;64.71
11099;BME280;12223;42.650;23.364;2024-01-06T06:03:14;94378.47;;;9.46;64.38
11099;BME280;12223;42.650;23.364;2024-01-06T06:05:42;94379.16;;;9.41;65.44
11099;BME280;12223;42.650;23.364;2024-01-06T06:08:10;94387.06;;;9.41;65.65
11099;BME280;12223;42.650;23.364;2024-01-06T06:10:37;94384.03;;;9.38;66.21
11099;BME280;12223;42.650;23.364;2024-01-06T06:13:17;94394.09;;;9.29;67.44
11099;BME280;12223;42.650;23.364;2024-01-06T06:15:44;94379.72;;;9.07;66.03
11099;BME280;12223;42.650;23.364;2024-01-06T06:18:11;94384.63;;;9.40;65.81
11099;BME280;12223;42.650;23.364;2024-01-06T06:20:37;94385.13;;;9.66;65.01
11099;BME280;12223;42.650;23.364;2024-01-06T06:23:05;94370.63;;;9.57;64.98
11099;BME280;12223;42.650;23.364;2024-01-06T06:25:32;94382.81;;;9.70;63.30
11099;BME280;12223;42.650;23.364;2024-01-06T06:27:59;94383.97;;;9.08;65.53
11099;BME280;12223;42.650;23.364;2024-01-06T06:30:26;94394.06;;;9.11;66.75
11099;BME280;12223;42.650;23.364;2024-01-06T06:32:52;94386.53;;;9.14;65.94
11099;BME280;12223;42.650;23.364;2024-01-06T06:35:19;94387.50;;;9.20;66.01
11099;BME280;12223;42.650;23.364;2024-01-06T06:37:46;94397.50;;;9.29;66.01
11099;BME280;12223;42.650;23.364;2024-01-06T06:40:14;94389.00;;;9.46;66.38
11099;BME280;12223;42.650;23.364;2024-01-06T06:42:41;94387.75;;;9.66;65.26
11099;BME280;12223;42.650;23.364;2024-01-06T06:45:08;94392.47;;;9.76;64.29
11099;BME280;12223;42.650;23.364;2024-01-06T06:47:37;94390.56;;;9.83;63.57
11099;BME280;12223;42.650;23.364;2024-01-06T06:50:04;94405.63;;;9.94;64.40
11099;BME280;12223;42.650;23.364;2024-01-06T06:52:31;94396.50;;;10.08;63.78
11099;BME280;12223;42.650;23.364;2024-01-06T06:54:58;94388.41;;;9.44;66.02
11099;BME280;12223;42.650;23.364;2024-01-06T06:57:26;94398.78;;;9.75;64.82
11099;BME280;12223;42.650;23.364;2024-01-06T06:59:53;94388.41;;;9.62;65.34
11099;BME280;12223;42.650;23.364;2024-01-06T07:02:20;94392.16;;;9.84;64.85
11099;BME280;12223;42.650;23.364;2024-01-06T07:04:46;94388.03;;;9.58;64.33
11099;BME280;12223;42.650;23.364;2024-01-06T07:07:13;94396.31;;;9.44;65.29
11099;BME280;12223;42.650;23.364;2024-01-06T07:09:40;94386.09;;;9.54;65.41
11099;BME280;12223;42.650;23.364;2024-01-06T07:12:07;94385.38;;;9.77;64.47
11099;BME280;12223;42.650;23.364;2024-01-06T07:14:35;94382.50;;;10.08;64.09
11099;BME280;12223;42.650;23.364;2024-01-06T07:17:03;94396.44;;;10.27;62.75
11099;BME280;12223;42.650;23.364;2024-01-06T07:19:31;94378.09;;;10.32;62.51
11099;BME280;12223;42.650;23.364;2024-01-06T07:21:58;94382.94;;;10.58;61.28
11099;BME280;12223;42.650;23.364;2024-01-06T07:24:24;94384.56;;;10.71;60.35
11099;BME280;12223;42.650;23.364;2024-01-06T07:26:52;94393.50;;;10.58;60.97
11099;BME280;12223;42.650;23.364;2024-01-06T07:29:19;94387.22;;;10.82;60.31
11099;BME280;12223;42.650;23.364;2024-01-06T07:31:47;94384.69;;;11.11;60.18
11099;BME280;12223;42.650;23.364;2024-01-06T07:34:13;94375.03;;;11.05;59.83
11099;BME280;12223;42.650;23.364;2024-01-06T07:36:41;94374.00;;;11.17;58.88
11099;BME280;12223;42.650;23.364;2024-01-06T07:39:08;94393.28;;;10.95;59.46
11099;BME280;12223;42.650;23.364;2024-01-06T07:41:34;94377.69;;;11.05;59.39
11099;BME280;12223;42.650;23.364;2024-01-06T07:44:01;94385.72;;;11.10;59.38
11099;BME280;12223;42.650;23.364;2024-01-06T07:46:28;94373.38;;;11.27;58.56
11099;BME280;12223;42.650;23.364;2024-01-06T07:48:59;94380.66;;;11.08;58.38
11099;BME280;12223;42.650;23.364;2024-01-06T07:51:26;94374.94;;;11.00;59.78
11099;BME280;12223;42.650;23.364;2024-01-06T07:53:53;94387.44;;;11.04;61.27
11099;BME280;12223;42.650;23.364;2024-01-06T07:56:19;94358.16;;;11.46;59.26
11099;BME280;12223;42.650;23.364;2024-01-06T07:58:46;94382.03;;;11.62;59.22
11099;BME280;12223;42.650;23.364;2024-01-06T08:01:13;94373.81;;;11.87;58.13
11099;BME280;12223;42.650;23.364;2024-01-06T08:03:39;94367.88;;;11.68;56.49
11099;BME280;12223;42.650;23.364;2024-01-06T08:06:08;94397.09;;;11.74;56.95
11099;BME280;12223;42.650;23.364;2024-01-06T08:08:34;94363.63;;;11.16;57.67
11099;BME280;12223;42.650;23.364;2024-01-06T08:11:01;94387.75;;;11.71;57.80
11099;BME280;12223;42.650;23.364;2024-01-06T08:13:28;94361.13;;;10.51;59.51
11099;BME280;12223;42.650;23.364;2024-01-06T08:15:54;94397.91;;;11.11;60.06
11099;BME280;12223;42.650;23.364;2024-01-06T08:18:21;94347.31;;;11.59;58.05
11099;BME280;12223;42.650;23.364;2024-01-06T08:20:48;94380.31;;;10.81;61.14
11099;BME280;12223;42.650;23.364;2024-01-06T08:23:16;94364.13;;;10.89;59.36
11099;BME280;12223;42.650;23.364;2024-01-06T08:25:44;94372.16;;;11.06;60.49
11099;BME280;12223;42.650;23.364;2024-01-06T08:28:11;94377.16;;;11.43;60.57
11099;BME280;12223;42.650;23.364;2024-01-06T08:30:40;94384.00;;;10.80;62.83
11099;BME280;12223;42.650;23.364;2024-01-06T08:33:06;94379.50;;;11.67;59.05
11099;BME280;12223;42.650;23.364;2024-01-06T08:35:33;94373.06;;;11.75;58.56
11099;BME280;12223;42.650;23.364;2024-01-06T08:38:05;94381.00;;;11.75;58.24
11099;BME280;12223;42.650;23.364;2024-01-06T08:40:33;94370.00;;;10.92;60.66
11099;BME280;12223;42.650;23.364;2024-01-06T08:43:00;94375.09;;;11.73;59.00
11099;BME280;12223;42.650;23.364;2024-01-06T08:45:27;94359.78;;;12.32;57.10
11099;BME280;12223;42.650;23.364;2024-01-06T08:47:54;94365.41;;;11.90;58.48
11099;BME280;12223;42.650;23.364;2024-01-06T08:50:21;94361.53;;;12.43;56.81
11099;BME280;12223;42.650;23.364;2024-01-06T08:52:47;94354.22;;;12.67;55.04
11099;BME280;12223;42.650;23.364;2024-01-06T08:55:14;94364.03;;;12.66;54.97
11099;BME280;12223;42.650;23.364;2024-01-06T08:57:43;94362.94;;;13.01;54.71
11099;BME280;12223;42.650;23.364;2024-01-06T09:00:10;94359.94;;;12.25;57.16
11099;BME280;12223;42.650;23.364;2024-01-06T09:02:37;94351.66;;;12.88;55.20
11099;BME280;12223;42.650;23.364;2024-01-06T09:05:05;94349.41;;;12.47;55.52
11099;BME280;12223;42.650;23.364;2024-01-06T09:07:32;94349.75;;;12.51;55.10
11099;BME280;12223;42.650;23.364;2024-01-06T09:09:59;94350.69;;;12.78;55.48
11099;BME280;12223;42.650;23.364;2024-01-06T09:12:25;94343.97;;;12.54;56.06
11099;BME280;12223;42.650;23.364;2024-01-06T09:14:54;94337.81;;;12.86;55.02
11099;BME280;12223;42.650;23.364;2024-01-06T09:17:20;94345.16;;;12.29;57.21
11099;BME280;12223;42.650;23.364;2024-01-06T09:19:48;94322.38;;;11.95;58.53
11099;BME280;12223;42.650;23.364;2024-01-06T09:22:14;94329.81;;;12.65;56.99
11099;BME280;12223;42.650;23.364;2024-01-06T09:24:41;94329.16;;;11.51;59.34
11099;BME280;12223;42.650;23.364;2024-01-06T09:27:08;94332.78;;;11.33;59.58
11099;BME280;12223;42.650;23.364;2024-01-06T09:29:35;94321.28;;;10.76;64.78
11099;BME280;12223;42.650;23.364;2024-01-06T09:32:03;94332.16;;;11.83;61.32
11099;BME280;12223;42.650;23.364;2024-01-06T09:34:30;94292.59;;;11.59;60.82
11099;BME280;12223;42.650;23.364;2024-01-06T09:36:57;94306.97;;;12.25;58.85
11099;BME280;12223;42.650;23.364;2024-01-06T09:39:23;94301.81;;;11.85;60.21
11099;BME280;12223;42.650;23.364;2024-01-06T09:41:50;94290.13;;;12.31;58.05
11099;BME280;12223;42.650;23.364;2024-01-06T09:44:17;94290.13;;;12.86;57.16
11099;BME280;12223;42.650;23.364;2024-01-06T09:46:44;94299.00;;;11.92;58.64
11099;BME280;12223;42.650;23.364;2024-01-06T09:49:12;94297.63;;;11.89;59.78
11099;BME280;12223;42.650;23.364;2024-01-06T09:51:40;94302.00;;;12.84;57.69
11099;BME280;12223;42.650;23.364;2024-01-06T09:54:09;94271.25;;;12.28;57.19
11099;BME280;12223;42.650;23.364;2024-01-06T09:56:36;94291.25;;;12.19;59.29
11099;BME280;12223;42.650;23.364;2024-01-06T09:59:03;94280.47;;;11.63;60.39
11099;BME280;12223;42.650;23.364;2024-01-06T10:01:30;94278.56;;;12.04;58.76
11099;BME280;12223;42.650;23.364;2024-01-06T10:03:57;94261.69;;;10.92;61.97
11099;BME280;12223;42.650;23.364;2024-01-06T10:06:25;94278.50;;;11.70;61.33
11099;BME280;12223;42.650;23.364;2024-01-06T10:08:52;94263.41;;;12.16;59.46
11099;BME280;12223;42.650;23.364;2024-01-06T10:11:20;94256.66;;;12.80;56.70
11099;BME280;12223;42.650;23.364;2024-01-06T10:13:48;94251.34;;;12.42;57.82
11099;BME280;12223;42.650;23.364;2024-01-06T10:16:16;94245.09;;;13.08;55.88
11099;BME280;12223;42.650;23.364;2024-01-06T10:18:44;94225.88;;;12.19;57.84
11099;BME280;12223;42.650;23.364;2024-01-06T10:21:11;94241.19;;;12.94;55.99
11099;BME280;12223;42.650;23.364;2024-01-06T10:23:39;94245.78;;;12.60;57.27
11099;BME280;12223;42.650;23.364;2024-01-06T10:26:12;94219.22;;;11.83;58.32
11099;BME280;12223;42.650;23.364;2024-01-06T10:28:39;94233.97;;;11.96;58.88
11099;BME280;12223;42.650;23.364;2024-01-06T10:31:07;94235.75;;;12.84;56.34
11099;BME280;12223;42.650;23.364;2024-01-06T10:33:35;94211.53;;;12.54;56.05
11099;BME280;12223;42.650;23.364;2024-01-06T10:36:02;94216.50;;;12.88;54.90
11099;BME280;12223;42.650;23.364;2024-01-06T10:38:30;94214.88;;;13.31;53.15
11099;BME280;12223;42.650;23.364;2024-01-06T10:41:00;94214.63;;;13.11;54.04
11099;BME280;12223;42.650;23.364;2024-01-06T10:43:28;94216.50;;;13.59;53.74
11099;BME280;12223;42.650;23.364;2024-01-06T10:45:56;94207.16;;;13.83;52.55
11099;BME280;12223;42.650;23.364;2024-01-06T10:48:24;94198.13;;;14.53;51.36
11099;BME280;12223;42.650;23.364;2024-01-06T10:50:51;94202.56;;;14.10;52.00
11099;BME280;12223;42.650;23.364;2024-01-06T10:53:21;94170.06;;;13.93;51.14
11099;BME280;12223;42.650;23.364;2024-01-06T10:55:49;94191.66;;;14.39;51.36
11099;BME280;12223;42.650;23.364;2024-01-06T10:58:18;94186.50;;;14.69;50.51
11099;BME280;12223;42.650;23.364;2024-01-06T11:00:46;94197.72;;;14.81;48.95
11099;BME280;12223;42.650;23.364;2024-01-06T11:03:14;94180.97;;;14.86;48.69
11099;BME280;12223;42.650;23.364;2024-01-06T11:05:41;94189.03;;;14.49;49.92
11099;BME280;12223;42.650;23.364;2024-01-06T11:08:08;94167.63;;;14.66;49.51
11099;BME280;12223;42.650;23.364;2024-01-06T11:10:40;94168.34;;;14.56;49.34
11099;BME280;12223;42.650;23.364;2024-01-06T11:13:12;94173.91;;;14.49;48.56
11099;BME280;12223;42.650;23.364;2024-01-06T11:15:41;94127.03;;;14.28;48.91
11099;BME280;12223;42.650;23.364;2024-01-06T11:18:07;94156.09;;;14.50;47.92
11099;BME280;12223;42.650;23.364;2024-01-06T11:20:34;94150.78;;;14.50;49.07
11099;BME280;12223;42.650;23.364;2024-01-06T11:23:19;94148.00;;;13.88;49.93
11099;BME280;12223;42.650;23.364;2024-01-06T11:25:46;94156.31;;;14.01;49.26
11099;BME280;12223;42.650;23.364;2024-01-06T11:28:13;94146.66;;;14.27;49.17
11099;BME280;12223;42.650;23.364;2024-01-06T11:30:44;94128.50;;;14.56;47.97
11099;BME280;12223;42.650;23.364;2024-01-06T11:33:11;94141.09;;;14.81;47.06
11099;BME280;12223;42.650;23.364;2024-01-06T11:35:39;94128.72;;;15.27;45.87
11099;BME280;12223;42.650;23.364;2024-01-06T11:38:07;94120.13;;;15.00;45.91
11099;BME280;12223;42.650;23.364;2024-01-06T11:40:36;94123.03;;;14.83;44.99
11099;BME280;12223;42.650;23.364;2024-01-06T11:43:06;94111.16;;;15.16;45.16
11099;BME280;12223;42.650;23.364;2024-01-06T11:45:33;94094.66;;;15.49;44.42
11099;BME280;12223;42.650;23.364;2024-01-06T11:48:03;94085.38;;;15.77;43.52
11099;BME280;12223;42.650;23.364;2024-01-06T11:50:31;94091.47;;;16.08;43.34
11099;BME280;12223;42.650;23.364;2024-01-06T11:52:58;94075.69;;;16.27;42.46
11099;BME280;12223;42.650;23.364;2024-01-06T11:55:26;94073.75;;;16.53;41.71
11099;BME280;12223;42.650;23.364;2024-01-06T11:57:54;94067.09;;;16.60;41.92
11099;BME280;12223;42.650;23.364;2024-01-06T12:00:23;94056.09;;;16.72;41.10
11099;BME280;12223;42.650;23.364;2024-01-06T12:02:49;94070.06;;;16.43;42.00
11099;BME280;12223;42.650;23.364;2024-01-06T12:05:23;94062.88;;;16.34;42.26
11099;BME280;12223;42.650;23.364;2024-01-06T12:07:53;94064.94;;;16.52;41.83
11099;BME280;12223;42.650;23.364;2024-01-06T12:10:21;94048.88;;;15.12;44.06
11099;BME280;12223;42.650;23.364;2024-01-06T12:12:55;94035.59;;;14.97;44.64
11099;BME280;12223;42.650;23.364;2024-01-06T12:15:23;94027.09;;;15.15;45.03
11099;BME280;12223;42.650;23.364;2024-01-06T12:17:50;94016.47;;;15.20;45.05
11099;BME280;12223;42.650;23.364;2024-01-06T12:20:17;94018.94;;;14.34;46.80
11099;BME280;12223;42.650;23.364;2024-01-06T12:22:45;94019.31;;;14.00;47.88
11099;BME280;12223;42.650;23.364;2024-01-06T12:25:14;94025.41;;;14.63;47.29
11099;BME280;12223;42.650;23.364;2024-01-06T12:27:42;94040.91;;;15.02;46.74
11099;BME280;12223;42.650;23.364;2024-01-06T12:30:13;94055.03;;;15.48;45.82
11099;BME280;12223;42.650;23.364;2024-01-06T12:32:41;94059.00;;;15.81;45.17
11099;BME280;12223;42.650;23.364;2024-01-06T12:35:09;94056.63;;;15.28;45.64
11099;BME280;12223;42.650;23.364;2024-01-06T12:37:35;94049.44;;;15.34;46.01
11099;BME280;12223;42.650;23.364;2024-01-06T12:40:04;94038.78;;;15.44;45.81
11099;BME280;12223;42.650;23.364;2024-01-06T12:42:31;94045.47;;;15.21;46.48
11099;BME280;12223;42.650;23.364;2024-01-06T12:44:58;94042.00;;;15.41;46.39
11099;BME280;12223;42.650;23.364;2024-01-06T12:47:25;94034.78;;;15.11;46.92
11099;BME280;12223;42.650;23.364;2024-01-06T12:49:51;94034.81;;;15.77;45.94
11099;BME280;12223;42.650;23.364;2024-01-06T12:52:18;94019.88;;;15.86;45.20